Time;durP1;ratioP1;P1;durP2;ratioP2;P2;SDS_P1;SDS_P2;PMS_P1;PMS_P2;Temp;Humidity;BMP_temperature;BMP_pressure;BME280_temperature;BME280_humidity;BME280_pressure;Samples;Min_cycle;Max_cycle;Signal;HPM_P1;HPM_P2
2022/01/06 00:00:24;;;;;;;11.15;2.22;;;-1.20;99.90;;;;;;4972837;28;20038;-71
2022/01/06 00:02:51;;;;;;;7.80;1.30;;;-1.20;99.90;;;;;;4973289;28;20054;-71
2022/01/06 00:05:18;;;;;;;9.60;2.17;;;-1.20;99.90;;;;;;4973679;28;20504;-71
2022/01/06 00:07:45;;;;;;;;;;;-1.20;99.90;;;;;;4973424;28;20034;-70
2022/01/06 00:10:13;;;;;;;10.68;1.92;;;-1.20;99.90;;;;;;4988102;28;19973;-70
2022/01/06 00:12:50;;;;;;;10.05;2.08;;;-1.20;99.90;;;;;;4988171;28;20050;-71
2022/01/06 00:25:47;;;;;;;8.05;2.15;;;-1.20;99.90;;;;;;4971558;28;20050;-71
2022/01/06 00:28:14;;;;;;;12.80;1.65;;;-1.20;99.90;;;;;;4973821;28;20069;-71
2022/01/06 00:30:41;;;;;;;13.23;3.08;;;-1.20;99.90;;;;;;4972384;28;20125;-71
2022/01/06 00:33:08;;;;;;;4.88;2.22;;;-1.20;99.90;;;;;;4974080;28;20096;-70
2022/01/06 00:35:35;;;;;;;6.43;2.08;;;-1.10;99.90;;;;;;4972991;28;20945;-70
2022/01/06 00:38:05;;;;;;;4.85;1.70;;;-1.10;99.90;;;;;;4970859;28;20350;-70
2022/01/06 00:40:32;;;;;;;11.55;3.05;;;-1.20;99.90;;;;;;4972380;28;20043;-71
2022/01/06 00:42:59;;;;;;;9.00;2.15;;;-1.10;99.90;;;;;;4973084;28;20060;-70
2022/01/06 00:45:26;;;;;;;;;;;-1.20;99.90;;;;;;4973469;28;20132;-70
2022/01/06 00:47:52;;;;;;;10.15;2.03;;;-1.10;99.90;;;;;;4973363;28;20467;-70
2022/01/06 00:50:19;;;;;;;;;;;-1.20;99.90;;;;;;4973537;28;20104;-71
2022/01/06 00:52:46;;;;;;;12.68;2.05;;;-1.20;99.90;;;;;;4972787;28;19925;-70
2022/01/06 00:55:12;;;;;;;;;;;-1.20;99.90;;;;;;4974343;28;20544;-70
2022/01/06 00:57:39;;;;;;;5.85;1.85;;;-1.20;99.90;;;;;;4973072;28;19930;-71
2022/01/06 01:00:06;;;;;;;;;;;-1.20;99.90;;;;;;4973096;28;20042;-70
2022/01/06 01:02:33;;;;;;;9.52;2.00;;;-1.20;99.90;;;;;;4972720;28;20001;-71
2022/01/06 01:05:00;;;;;;;5.65;2.15;;;-1.20;99.90;;;;;;4968596;28;20608;-70
2022/01/06 01:07:27;;;;;;;5.25;1.77;;;-1.20;99.90;;;;;;4974809;28;20038;-70
2022/01/06 01:09:54;;;;;;;;;;;-1.20;99.90;;;;;;4976498;28;20575;-70
2022/01/06 01:12:23;;;;;;;6.88;2.25;;;-1.20;99.90;;;;;;4976697;28;20407;-69
2022/01/06 01:14:58;;;;;;;4.45;1.15;;;-1.20;99.90;;;;;;4975663;28;20042;-70
2022/01/06 01:17:26;;;;;;;4.57;2.42;;;-1.20;99.90;;;;;;4975806;28;20363;-70
2022/01/06 01:19:53;;;;;;;9.63;2.03;;;-1.20;99.90;;;;;;4975583;28;20092;-70
2022/01/06 01:22:21;;;;;;;5.10;1.70;;;-1.20;99.90;;;;;;4973706;28;20101;-70
2022/01/06 01:24:49;;;;;;;6.88;1.38;;;-1.20;99.90;;;;;;4976754;28;20038;-71
2022/01/06 01:27:20;;;;;;;;;;;-1.20;99.90;;;;;;4976699;28;20480;-71
2022/01/06 01:30:02;;;;;;;8.80;1.60;;;-1.20;99.90;;;;;;4975850;28;19933;-70
2022/01/06 01:32:35;;;;;;;14.75;3.15;;;-1.20;99.90;;;;;;4974908;28;20038;-71
2022/01/06 01:35:04;;;;;;;7.72;1.85;;;-1.20;99.90;;;;;;4974127;28;20046;-70
2022/01/06 01:37:31;;;;;;;7.82;1.83;;;-1.10;99.90;;;;;;4975928;28;20062;-70
2022/01/06 01:39:59;;;;;;;15.82;2.80;;;-1.10;99.90;;;;;;4976089;28;20531;-70
2022/01/06 01:42:26;;;;;;;6.85;1.77;;;-1.20;99.90;;;;;;4975931;28;20085;-70
2022/01/06 01:44:54;;;;;;;4.00;1.63;;;-1.20;99.90;;;;;;4975466;28;20144;-70
2022/01/06 01:50:20;;;;;;;4.93;1.40;;;-1.10;99.90;;;;;;4970616;28;20054;-70
2022/01/06 01:52:52;;;;;;;6.32;1.77;;;-1.10;99.90;;;;;;4990476;28;20117;-69
2022/01/06 01:55:20;;;;;;;6.20;1.80;;;-1.10;99.90;;;;;;4975580;28;20046;-70
2022/01/06 01:57:48;;;;;;;8.77;2.60;;;-1.10;99.90;;;;;;4975796;28;20050;-70
2022/01/06 02:00:17;;;;;;;17.52;1.83;;;-1.10;99.90;;;;;;4974661;28;20097;-70
2022/01/06 02:02:43;;;;;;;7.10;1.58;;;-1.10;99.90;;;;;;4975898;28;20201;-70
2022/01/06 02:05:11;;;;;;;10.40;1.98;;;-1.10;99.90;;;;;;4975787;28;20491;-70
2022/01/06 02:07:41;;;;;;;4.57;1.13;;;-1.10;99.90;;;;;;4975793;28;20042;-70
2022/01/06 02:10:10;;;;;;;5.78;1.48;;;-1.10;99.90;;;;;;4974933;28;20508;-70
2022/01/06 02:12:38;;;;;;;8.52;1.75;;;-1.10;99.90;;;;;;4975270;28;20038;-70
2022/01/06 02:15:07;;;;;;;5.78;1.48;;;-1.10;99.90;;;;;;4975167;28;20046;-70
2022/01/06 02:17:36;;;;;;;10.65;1.67;;;-1.10;99.90;;;;;;4989996;28;20097;-70
2022/01/06 02:20:09;;;;;;;2.65;1.20;;;-1.10;99.90;;;;;;4973358;28;20042;-70
2022/01/06 02:22:36;;;;;;;6.25;1.80;;;-1.10;99.90;;;;;;4974851;28;20109;-70
2022/01/06 02:25:15;;;;;;;8.02;2.00;;;-1.10;99.90;;;;;;4974940;28;20074;-70
2022/01/06 02:27:43;;;;;;;7.40;1.63;;;-1.10;99.90;;;;;;4972178;28;20069;-70
2022/01/06 02:30:11;;;;;;;6.40;2.63;;;-1.10;99.90;;;;;;4975511;28;20053;-70
2022/01/06 02:32:38;;;;;;;5.68;1.42;;;-1.10;99.90;;;;;;4974443;28;20082;-70
2022/01/06 02:35:07;;;;;;;5.07;1.48;;;-1.10;99.90;;;;;;4974596;28;20425;-70
2022/01/06 02:37:34;;;;;;;5.88;1.33;;;-1.00;99.90;;;;;;4975478;28;20257;-70
2022/01/06 02:40:05;;;;;;;3.90;1.45;;;-1.00;99.90;;;;;;4971936;28;20038;-70
2022/01/06 02:42:32;;;;;;;5.45;1.55;;;-1.00;99.90;;;;;;4974736;28;20811;-70
2022/01/06 02:44:59;;;;;;;8.98;1.40;;;-1.00;99.90;;;;;;4974904;28;20093;-69
2022/01/06 02:47:25;;;;;;;;;;;-1.00;99.90;;;;;;4974235;28;20476;-70
2022/01/06 02:49:52;;;;;;;8.10;1.50;;;-1.00;99.90;;;;;;4973411;28;20396;-70
2022/01/06 02:52:19;;;;;;;;;;;-1.00;99.90;;;;;;4975083;28;20045;-70
2022/01/06 02:54:45;;;;;;;6.82;1.88;;;-1.00;99.90;;;;;;4974643;28;20531;-69
2022/01/06 02:57:12;;;;;;;;;;;-1.00;99.90;;;;;;4974622;28;20061;-72
2022/01/06 02:59:39;;;;;;;7.90;1.75;;;-1.00;99.90;;;;;;4974304;28;20269;-69
2022/01/06 03:02:06;;;;;;;12.07;3.13;;;-1.00;99.90;;;;;;4973925;28;20038;-70
2022/01/06 03:04:33;;;;;;;8.73;1.80;;;-1.00;99.90;;;;;;4973730;28;20053;-69
2022/01/06 03:07:01;;;;;;;;;;;-1.10;99.90;;;;;;4975111;28;20595;-70
2022/01/06 03:09:37;;;;;;;11.57;2.17;;;-1.10;99.90;;;;;;4974135;28;19937;-69
2022/01/06 03:12:10;;;;;;;3.00;1.55;;;-1.10;99.90;;;;;;4973866;28;20470;-70
2022/01/06 03:14:37;;;;;;;3.47;1.65;;;-1.20;99.90;;;;;;4974117;28;20045;-70
2022/01/06 03:17:05;;;;;;;11.55;2.08;;;-1.20;99.90;;;;;;4974849;28;20377;-70
2022/01/06 03:19:31;;;;;;;6.63;1.98;;;-1.20;99.90;;;;;;4972945;28;20125;-70
2022/01/06 03:21:58;;;;;;;;;;;-1.20;99.90;;;;;;4975070;28;20764;-70
2022/01/06 03:24:25;;;;;;;9.85;2.13;;;-1.20;99.90;;;;;;4973658;28;19980;-69
2022/01/06 03:26:51;;;;;;;;;;;-1.20;99.90;;;;;;4974499;28;20294;-70
2022/01/06 03:29:18;;;;;;;8.73;2.58;;;-1.20;99.90;;;;;;4972912;28;19926;-70
2022/01/06 03:31:45;;;;;;;6.82;1.80;;;-1.20;99.90;;;;;;4974739;28;20096;-69
2022/01/06 03:34:13;;;;;;;5.32;1.85;;;-1.20;99.90;;;;;;4972414;28;20042;-69
2022/01/06 03:36:39;;;;;;;9.23;2.85;;;-1.20;99.90;;;;;;4973643;28;20458;-70
2022/01/06 03:39:06;;;;;;;5.72;2.00;;;-1.20;99.90;;;;;;4973476;28;20591;-69
2022/01/06 03:41:33;;;;;;;;;;;-1.20;99.90;;;;;;4974156;28;20638;-71
2022/01/06 03:44:00;;;;;;;9.52;2.25;;;-1.10;99.90;;;;;;4972367;28;20406;-69
2022/01/06 03:46:27;;;;;;;13.10;2.72;;;-1.10;99.90;;;;;;4973627;28;20052;-69
2022/01/06 03:48:54;;;;;;;8.35;1.95;;;-1.10;99.90;;;;;;4972940;28;20065;-69
2022/01/06 03:51:23;;;;;;;9.88;1.70;;;-1.10;99.90;;;;;;4973002;28;20050;-70
2022/01/06 03:53:51;;;;;;;8.75;1.77;;;-1.10;99.90;;;;;;4976293;28;20073;-69
2022/01/06 03:56:18;;;;;;;5.35;1.48;;;-1.10;99.90;;;;;;4973372;28;20053;-69
2022/01/06 03:58:45;;;;;;;12.95;1.60;;;-1.10;99.90;;;;;;4973650;28;20602;-69
2022/01/06 04:01:12;;;;;;;;;;;-1.10;99.90;;;;;;4973957;28;20042;-71
2022/01/06 04:03:39;;;;;;;3.33;1.38;;;-1.10;99.90;;;;;;4973049;28;19936;-69
2022/01/06 04:06:06;;;;;;;7.22;1.92;;;-1.10;99.90;;;;;;4973966;28;20053;-69
2022/01/06 04:08:33;;;;;;;8.75;2.00;;;-1.10;99.90;;;;;;4972947;28;20042;-69
2022/01/06 04:10:59;;;;;;;;;;;-1.10;99.90;;;;;;4969265;28;20046;-69
2022/01/06 04:13:26;;;;;;;9.38;2.70;;;-1.10;99.90;;;;;;4973219;28;20304;-69
2022/01/06 04:15:53;;;;;;;11.13;1.83;;;-1.10;99.90;;;;;;4973435;28;20370;-69
2022/01/06 04:18:20;;;;;;;11.60;2.05;;;-1.10;99.90;;;;;;4974180;28;20039;-69
2022/01/06 04:20:47;;;;;;;8.82;1.95;;;-1.10;99.90;;;;;;4972254;28;20108;-69
2022/01/06 04:23:14;;;;;;;4.72;1.95;;;-1.20;99.90;;;;;;4973222;28;20488;-69
2022/01/06 04:25:40;;;;;;;;;;;-1.20;99.90;;;;;;4971111;28;20108;-69
2022/01/06 04:28:07;;;;;;;11.52;2.30;;;-1.20;99.90;;;;;;4971895;28;19925;-69
2022/01/06 04:30:34;;;;;;;16.58;3.05;;;-1.20;99.90;;;;;;4972748;28;20050;-69
2022/01/06 04:33:01;;;;;;;7.20;2.38;;;-1.20;99.90;;;;;;4973606;28;20050;-69
2022/01/06 04:35:28;;;;;;;13.45;2.22;;;-1.20;99.90;;;;;;4972395;28;20484;-69
2022/01/06 04:37:54;;;;;;;8.07;1.80;;;-1.30;99.90;;;;;;4972980;28;20136;-69
2022/01/06 04:40:21;;;;;;;;;;;-1.30;99.90;;;;;;4970617;28;20104;-69
2022/01/06 04:42:48;;;;;;;10.40;2.72;;;-1.30;99.90;;;;;;4975166;28;19925;-69
2022/01/06 04:45:14;;;;;;;;;;;-1.30;99.90;;;;;;4977432;28;20077;-69
2022/01/06 04:47:41;;;;;;;10.25;2.22;;;-1.30;99.90;;;;;;4976770;28;20017;-69
2022/01/06 04:50:08;;;;;;;;;;;-1.30;99.90;;;;;;4977305;28;20053;-69
2022/01/06 04:52:35;;;;;;;7.80;2.20;;;-1.20;99.90;;;;;;4978491;28;20008;-69
2022/01/06 04:55:02;;;;;;;10.85;2.30;;;-1.20;99.90;;;;;;4976814;28;20148;-69
2022/01/06 04:57:29;;;;;;;8.80;1.80;;;-1.20;99.90;;;;;;4976039;28;20344;-69
2022/01/06 04:59:56;;;;;;;;;;;-1.20;99.90;;;;;;4976943;28;20038;-69
2022/01/06 05:02:26;;;;;;;6.88;1.83;;;-1.20;99.90;;;;;;4977043;28;19925;-69
2022/01/06 05:04:53;;;;;;;6.78;1.98;;;-1.20;99.90;;;;;;4975516;28;20057;-70
2022/01/06 05:07:19;;;;;;;;;;;-1.20;99.90;;;;;;4974552;28;20751;-69
2022/01/06 05:09:46;;;;;;;3.70;1.70;;;-1.20;99.90;;;;;;4975982;28;20491;-69
2022/01/06 05:12:13;;;;;;;;;;;-1.30;99.90;;;;;;4976807;28;20143;-68
2022/01/06 05:14:40;;;;;;;8.60;1.42;;;-1.30;99.90;;;;;;4975717;28;20458;-68
2022/01/06 05:17:07;;;;;;;2.38;1.45;;;-1.20;99.90;;;;;;4977554;28;20510;-68
2022/01/06 05:19:34;;;;;;;4.93;1.65;;;-1.20;99.90;;;;;;4974752;28;20049;-69
2022/01/06 05:22:02;;;;;;;12.00;2.05;;;-1.30;99.90;;;;;;4973722;28;20579;-69
2022/01/06 05:24:29;;;;;;;9.88;2.10;;;-1.30;99.90;;;;;;4976122;28;20132;-69
2022/01/06 05:26:57;;;;;;;8.60;4.25;;;-1.30;99.90;;;;;;4975639;28;20038;-70
2022/01/06 05:29:24;;;;;;;9.77;1.70;;;-1.30;99.90;;;;;;4975878;28;20556;-68
2022/01/06 05:31:51;;;;;;;6.38;1.33;;;-1.20;99.90;;;;;;4976162;28;20314;-68
2022/01/06 05:34:18;;;;;;;7.63;1.75;;;-1.30;99.90;;;;;;4975255;28;20049;-70
2022/01/06 05:36:44;;;;;;;5.70;1.30;;;-1.30;99.90;;;;;;4975993;28;20558;-68
2022/01/06 05:39:11;;;;;;;4.28;1.75;;;-1.30;99.90;;;;;;4975792;28;20054;-68
2022/01/06 05:41:38;;;;;;;5.68;1.77;;;-1.20;99.90;;;;;;4975862;28;20957;-69
2022/01/06 05:44:05;;;;;;;15.35;2.50;;;-1.20;99.90;;;;;;4975275;28;20097;-68
2022/01/06 05:46:32;;;;;;;3.22;1.60;;;-1.20;99.90;;;;;;4976013;28;20118;-69
2022/01/06 05:48:59;;;;;;;24.10;3.47;;;-1.20;99.90;;;;;;4974147;28;20039;-68
2022/01/06 05:51:25;;;;;;;;;;;-1.20;99.90;;;;;;4976661;28;20228;-68
2022/01/06 05:53:53;;;;;;;6.22;1.60;;;-1.20;99.90;;;;;;4978130;28;20008;-69
2022/01/06 05:56:21;;;;;;;6.32;1.35;;;-1.20;99.90;;;;;;4973456;28;20170;-68
2022/01/06 05:58:48;;;;;;;10.82;3.22;;;-1.20;99.90;;;;;;4975442;28;20057;-69
2022/01/06 06:01:15;;;;;;;8.60;1.77;;;-1.20;99.90;;;;;;4975290;28;20120;-68
2022/01/06 06:03:42;;;;;;;4.85;1.33;;;-1.20;99.90;;;;;;4975699;28;21177;-68
2022/01/06 06:06:09;;;;;;;;;;;-1.20;99.90;;;;;;4976555;28;20116;-68
2022/01/06 06:08:35;;;;;;;3.75;1.55;;;-1.20;99.90;;;;;;4975812;28;20330;-68
2022/01/06 06:11:02;;;;;;;;;;;-1.20;99.90;;;;;;4974801;28;20046;-68
2022/01/06 06:13:29;;;;;;;11.68;2.78;;;-1.20;99.90;;;;;;4975557;28;19972;-68
2022/01/06 06:15:55;;;;;;;;;;;-1.20;99.90;;;;;;4975669;28;20062;-68
2022/01/06 06:18:22;;;;;;;9.65;1.80;;;-1.20;99.90;;;;;;4976002;28;19992;-68
2022/01/06 06:20:49;;;;;;;7.82;1.33;;;-1.20;99.90;;;;;;4975080;28;20178;-62
2022/01/06 06:23:16;;;;;;;8.25;2.40;;;-1.20;99.90;;;;;;4988595;28;20624;-56
2022/01/06 06:25:43;;;;;;;5.97;1.60;;;-1.20;99.90;;;;;;4974777;28;20092;-56
2022/01/06 06:28:10;;;;;;;3.95;2.00;;;-1.20;99.90;;;;;;4975085;28;20417;-57
2022/01/06 06:30:36;;;;;;;;;;;-1.10;99.90;;;;;;4970109;28;20254;-56
2022/01/06 06:33:03;;;;;;;16.50;2.40;;;-1.10;99.90;;;;;;4974010;28;19956;-59
2022/01/06 06:35:30;;;;;;;;;;;-1.10;99.90;;;;;;4975158;28;20058;-59
2022/01/06 06:37:57;;;;;;;8.35;1.85;;;-1.10;99.90;;;;;;4974921;28;20443;-59
2022/01/06 06:40:24;;;;;;;7.75;1.90;;;-1.10;99.90;;;;;;4968130;28;20100;-57
2022/01/06 06:42:51;;;;;;;7.38;2.03;;;-1.10;99.90;;;;;;4973779;28;20093;-57
2022/01/06 06:45:20;;;;;;;10.48;2.33;;;-1.10;99.90;;;;;;4973777;28;20721;-57
2022/01/06 06:47:47;;;;;;;9.00;2.10;;;-1.10;99.90;;;;;;4974433;28;20318;-56
2022/01/06 06:50:16;;;;;;;6.97;1.92;;;-1.10;99.90;;;;;;4974119;28;20049;-58
2022/01/06 06:52:43;;;;;;;5.88;2.10;;;-1.10;99.90;;;;;;4974608;28;20561;-57
2022/01/06 06:55:12;;;;;;;7.15;1.98;;;-1.10;99.90;;;;;;4974326;28;20046;-58
2022/01/06 06:57:39;;;;;;;3.75;2.13;;;-1.10;99.90;;;;;;4973926;28;20116;-56
2022/01/06 07:00:08;;;;;;;8.98;3.30;;;-1.10;99.90;;;;;;4973428;28;20042;-56
2022/01/06 07:02:35;;;;;;;11.82;4.18;;;-1.10;99.90;;;;;;4971197;28;20342;-56
2022/01/06 07:05:03;;;;;;;10.00;3.63;;;-1.10;99.90;;;;;;4987373;28;20651;-56
2022/01/06 07:07:30;;;;;;;10.43;4.30;;;-1.10;99.90;;;;;;4974402;28;20046;-55
2022/01/06 07:09:56;;;;;;;11.00;4.32;;;-1.10;99.90;;;;;;4973565;28;20065;-58
2022/01/06 07:12:23;;;;;;;9.20;4.80;;;-1.10;99.90;;;;;;4974265;28;20489;-58
2022/01/06 07:14:50;;;;;;;;;;;-1.10;99.90;;;;;;4973673;28;20408;-58
2022/01/06 07:17:17;;;;;;;6.30;3.47;;;-1.00;99.90;;;;;;4971197;28;19929;-58
2022/01/06 07:19:43;;;;;;;;;;;-1.00;99.90;;;;;;4975123;28;20034;-58
2022/01/06 07:22:10;;;;;;;6.60;2.50;;;-1.00;99.90;;;;;;4975807;28;20492;-58
2022/01/06 07:24:37;;;;;;;;;;;-1.00;99.90;;;;;;4975216;28;20096;-59
2022/01/06 07:27:04;;;;;;;6.43;2.28;;;-1.00;99.90;;;;;;4973889;28;20327;-58
2022/01/06 07:29:31;;;;;;;7.75;1.60;;;-0.90;99.90;;;;;;4972686;28;20046;-58
2022/01/06 07:31:58;;;;;;;;;;;-0.90;99.90;;;;;;4974292;28;20046;-58
2022/01/06 07:34:25;;;;;;;7.97;2.30;;;-0.90;99.90;;;;;;4973512;28;19973;-58
2022/01/06 07:36:52;;;;;;;5.18;1.70;;;-0.90;99.90;;;;;;4973945;28;20555;-58
2022/01/06 07:39:19;;;;;;;6.38;2.20;;;-0.90;99.90;;;;;;4972517;28;20779;-58
2022/01/06 07:41:45;;;;;;;6.57;1.50;;;-0.90;99.90;;;;;;4973510;28;20129;-58
2022/01/06 07:44:12;;;;;;;4.78;1.70;;;-0.80;99.90;;;;;;4973850;28;20180;-59
2022/01/06 07:46:41;;;;;;;;;;;-0.80;99.90;;;;;;4973601;28;20116;-59
2022/01/06 07:49:08;;;;;;;4.43;1.65;;;-0.80;99.90;;;;;;4973143;28;19932;-59
2022/01/06 07:51:35;;;;;;;5.38;1.80;;;-0.80;99.90;;;;;;4973971;28;20528;-58
2022/01/06 07:54:02;;;;;;;6.10;2.00;;;-0.80;99.90;;;;;;4977234;28;20427;-58
2022/01/06 07:56:29;;;;;;;4.18;1.52;;;-0.80;99.90;;;;;;4973920;28;20113;-59
2022/01/06 07:58:56;;;;;;;6.13;2.00;;;-0.70;99.90;;;;;;4972987;28;20038;-58
2022/01/06 08:01:23;;;;;;;4.97;1.70;;;-0.70;99.90;;;;;;4973357;28;20070;-58
2022/01/06 08:03:51;;;;;;;5.97;1.85;;;-0.70;99.90;;;;;;4972988;28;20120;-59
2022/01/06 08:06:18;;;;;;;3.95;2.47;;;-0.60;99.90;;;;;;4973278;28;20062;-58
2022/01/06 08:08:45;;;;;;;5.20;2.20;;;-0.60;99.90;;;;;;4972675;28;20196;-58
2022/01/06 08:11:13;;;;;;;6.47;1.67;;;-0.60;99.90;;;;;;4973322;28;20050;-58
2022/01/06 08:13:41;;;;;;;9.00;2.10;;;-0.60;99.90;;;;;;4970268;28;20221;-56
2022/01/06 08:16:08;;;;;;;5.22;2.03;;;-0.60;99.90;;;;;;4973353;28;20046;-58
2022/01/06 08:18:34;;;;;;;4.78;2.30;;;-0.50;99.90;;;;;;4977699;28;20583;-58
2022/01/06 08:21:01;;;;;;;;;;;-0.50;99.90;;;;;;4977550;28;20045;-58
2022/01/06 08:23:28;;;;;;;9.17;2.13;;;-0.40;99.90;;;;;;4976985;28;20199;-58
2022/01/06 08:25:55;;;;;;;;;;;-0.40;99.90;;;;;;4977464;28;20050;-58
2022/01/06 08:28:22;;;;;;;7.50;4.10;;;-0.40;99.90;;;;;;4977440;28;20003;-58
2022/01/06 08:30:49;;;;;;;11.25;2.25;;;-0.40;99.90;;;;;;4975989;28;20046;-58
2022/01/06 08:33:16;;;;;;;;;;;-0.30;99.90;;;;;;4977879;28;20497;-58
2022/01/06 08:35:43;;;;;;;3.65;2.15;;;-0.30;99.90;;;;;;4976939;28;20035;-58
2022/01/06 08:38:14;;;;;;;9.73;2.10;;;-0.30;99.90;;;;;;4976861;28;20058;-56
2022/01/06 08:40:41;;;;;;;7.47;2.63;;;-0.30;99.90;;;;;;4974198;28;20042;-56
2022/01/06 08:43:08;;;;;;;8.77;2.20;;;-0.20;99.90;;;;;;4975921;28;20042;-56
2022/01/06 08:45:34;;;;;;;;;;;-0.20;99.90;;;;;;4976297;28;20124;-56
2022/01/06 08:48:01;;;;;;;6.88;1.92;;;-0.10;99.90;;;;;;4983182;28;20135;-56
2022/01/06 08:50:29;;;;;;;5.25;2.42;;;-0.10;99.90;;;;;;4976339;28;20365;-58
2022/01/06 08:52:56;;;;;;;6.43;2.40;;;0.00;99.90;;;;;;4977877;28;20038;-58
2022/01/06 08:55:26;;;;;;;5.95;1.80;;;0.00;99.90;;;;;;4976865;28;20105;-58
2022/01/06 08:57:53;;;;;;;8.32;2.15;;;0.10;99.90;;;;;;4976494;28;20093;-58
2022/01/06 09:00:20;;;;;;;11.52;2.53;;;0.20;99.90;;;;;;4973353;28;20042;-61
2022/01/06 09:02:47;;;;;;;9.93;3.72;;;0.20;99.90;;;;;;4973960;28;20055;-59
2022/01/06 09:05:15;;;;;;;;;;;0.20;99.90;;;;;;4976789;28;20116;-56
2022/01/06 09:07:42;;;;;;;11.60;2.10;;;0.20;99.90;;;;;;4975814;28;20569;-56
2022/01/06 09:10:09;;;;;;;7.10;2.22;;;0.30;99.90;;;;;;4975883;28;20263;-57
2022/01/06 09:12:37;;;;;;;5.32;2.08;;;0.30;99.90;;;;;;4977183;28;20343;-56
2022/01/06 09:15:06;;;;;;;7.90;3.17;;;0.30;99.90;;;;;;4973503;28;20116;-56
2022/01/06 09:17:35;;;;;;;8.52;2.92;;;0.30;99.90;;;;;;4974644;28;20113;-57
2022/01/06 09:20:07;;;;;;;8.32;2.50;;;0.30;99.90;;;;;;4971526;28;20050;-57
2022/01/06 09:22:39;;;;;;;6.88;2.78;;;0.30;99.90;;;;;;4977801;28;20544;-57
2022/01/06 09:25:06;;;;;;;3.70;2.55;;;0.30;99.90;;;;;;4976077;28;20073;-59
2022/01/06 09:27:33;;;;;;;7.15;2.45;;;0.30;99.90;;;;;;4972547;28;20050;-57
2022/01/06 09:30:00;;;;;;;6.32;2.53;;;0.30;99.90;;;;;;4974296;28;20516;-59
2022/01/06 09:32:27;;;;;;;6.97;2.53;;;0.30;99.90;;;;;;4971562;28;20053;-58
2022/01/06 09:34:53;;;;;;;;;;;0.30;99.90;;;;;;4975980;28;20382;-57
2022/01/06 09:37:20;;;;;;;8.95;2.75;;;0.30;99.90;;;;;;4969747;28;20400;-58
2022/01/06 09:39:47;;;;;;;8.02;2.97;;;0.30;99.90;;;;;;4963357;28;20053;-59
2022/01/06 09:42:16;;;;;;;5.93;2.55;;;0.30;99.90;;;;;;4972503;28;20046;-59
2022/01/06 09:44:43;;;;;;;7.85;3.25;;;0.30;99.90;;;;;;4972370;28;20053;-59
2022/01/06 09:47:10;;;;;;;9.00;3.05;;;0.30;99.90;;;;;;4973291;28;20046;-59
2022/01/06 09:49:57;;;;;;;9.27;2.87;;;0.40;99.90;;;;;;4984641;28;20042;-60
2022/01/06 09:52:24;;;;;;;10.82;3.03;;;0.40;99.90;;;;;;4975615;28;20352;-60
2022/01/06 09:54:51;;;;;;;10.13;2.65;;;0.40;99.90;;;;;;4991432;28;20046;-59
2022/01/06 09:57:18;;;;;;;;;;;0.40;99.90;;;;;;4976426;28;20056;-60
2022/01/06 09:59:45;;;;;;;3.97;2.47;;;0.40;99.90;;;;;;4974787;28;20230;-60
2022/01/06 10:02:19;;;;;;;3.92;2.20;;;0.40;99.90;;;;;;4975521;28;20139;-60
2022/01/06 10:04:58;;;;;;;8.40;2.80;;;0.40;99.90;;;;;;4975630;28;20066;-60
2022/01/06 10:07:25;;;;;;;5.80;3.33;;;0.50;99.90;;;;;;4974294;28;20065;-60
2022/01/06 10:09:51;;;;;;;;;;;0.50;99.90;;;;;;4987372;28;20354;-60
2022/01/06 10:12:18;;;;;;;7.35;2.80;;;0.50;99.90;;;;;;4974724;28;19988;-58
2022/01/06 10:14:50;;;;;;;6.38;3.28;;;0.50;99.90;;;;;;4972939;28;20062;-58
2022/01/06 10:17:33;;;;;;;12.90;3.70;;;0.40;99.90;;;;;;4974729;28;20204;-58
2022/01/06 10:20:12;;;;;;;5.97;3.28;;;0.40;99.90;;;;;;4972940;28;20042;-61
2022/01/06 10:22:47;;;;;;;5.55;3.33;;;0.40;99.90;;;;;;4972923;28;20038;-57
2022/01/06 10:25:15;;;;;;;8.57;3.50;;;0.50;99.90;;;;;;4972927;28;20079;-57
2022/01/06 10:27:44;;;;;;;5.53;2.95;;;0.50;99.90;;;;;;4974205;28;20050;-58
2022/01/06 10:30:12;;;;;;;5.20;3.05;;;0.50;99.90;;;;;;4974030;28;20050;-60
2022/01/06 10:32:40;;;;;;;7.45;3.05;;;0.40;99.90;;;;;;4974972;28;20077;-60
2022/01/06 10:35:08;;;;;;;4.43;2.65;;;0.50;99.90;;;;;;4989234;28;20065;-59
2022/01/06 10:37:40;;;;;;;8.07;3.47;;;0.50;99.90;;;;;;4974217;28;20057;-60
2022/01/06 10:40:17;;;;;;;14.20;3.92;;;0.50;99.90;;;;;;4973005;28;20062;-60
2022/01/06 10:42:49;;;;;;;8.05;3.08;;;0.50;99.90;;;;;;4974854;28;20050;-60
2022/01/06 10:45:24;;;;;;;7.90;2.95;;;0.50;99.90;;;;;;4971741;28;20089;-60
2022/01/06 10:47:53;;;;;;;6.60;2.90;;;0.50;99.90;;;;;;4974471;28;20054;-57
2022/01/06 10:50:29;;;;;;;5.07;2.47;;;0.50;99.90;;;;;;4972594;28;20042;-57
2022/01/06 10:53:10;;;;;;;8.70;3.00;;;0.60;99.90;;;;;;4974356;28;20104;-58
2022/01/06 10:55:46;;;;;;;4.07;2.42;;;0.60;99.90;;;;;;4972538;28;20042;-58
2022/01/06 10:58:18;;;;;;;5.43;2.50;;;0.60;99.90;;;;;;4972311;28;20046;-60
2022/01/06 11:00:56;;;;;;;8.68;2.65;;;0.70;99.90;;;;;;4974155;28;20043;-60
2022/01/06 11:03:28;;;;;;;13.80;3.05;;;0.70;99.90;;;;;;4974065;28;20077;-59
2022/01/06 11:05:58;;;;;;;14.60;4.43;;;0.70;99.90;;;;;;4971877;28;20038;-60
2022/01/06 11:08:33;;;;;;;12.77;3.47;;;0.70;99.90;;;;;;4974121;28;20069;-60
2022/01/06 11:13:44;;;;;;;8.85;3.35;;;0.70;99.90;;;;;;4970673;28;20061;-60
2022/01/06 11:16:13;;;;;;;8.73;3.33;;;0.70;99.90;;;;;;4974491;28;20117;-59
2022/01/06 11:18:50;;;;;;;6.97;3.22;;;0.60;99.90;;;;;;4976207;28;20688;-60
2022/01/06 11:21:22;;;;;;;11.88;3.15;;;0.60;99.90;;;;;;4973888;28;20093;-60
2022/01/06 11:24:04;;;;;;;9.10;3.25;;;0.60;99.90;;;;;;4973514;28;20326;-60
2022/01/06 11:26:30;;;;;;;6.93;2.97;;;0.60;99.90;;;;;;4974097;28;20100;-60
2022/01/06 11:28:58;;;;;;;;;;;0.60;99.90;;;;;;4973974;28;20034;-59
2022/01/06 11:31:27;;;;;;;;;;;0.70;99.90;;;;;;4974266;28;19929;-60
2022/01/06 11:33:56;;;;;;;10.18;3.97;;;0.70;99.90;;;;;;4971326;28;20594;-60
2022/01/06 11:36:35;;;;;;;6.13;3.10;;;0.70;99.90;;;;;;4987797;28;20260;-60
2022/01/06 11:39:06;;;;;;;6.20;2.80;;;0.70;99.90;;;;;;4986465;28;20457;-61
2022/01/06 11:41:41;;;;;;;4.63;2.53;;;0.70;99.90;;;;;;4973018;28;20046;-60
2022/01/06 11:44:21;;;;;;;12.18;4.50;;;0.70;99.90;;;;;;4973237;28;20493;-62
2022/01/06 11:46:56;;;;;;;10.88;4.22;;;0.70;99.90;;;;;;4972995;28;20057;-61
2022/01/06 11:49:42;;;;;;;10.48;3.45;;;0.80;99.90;;;;;;4972956;28;20052;-58
2022/01/06 11:52:15;;;;;;;20.25;6.95;;;0.80;99.90;;;;;;4974101;28;20054;-58
2022/01/06 11:54:46;;;;;;;12.93;4.78;;;0.80;99.90;;;;;;4974945;28;20345;-59
2022/01/06 11:57:14;;;;;;;12.15;4.40;;;0.80;99.90;;;;;;4970966;28;20263;-58
2022/01/06 11:59:45;;;;;;;11.18;4.50;;;0.80;99.90;;;;;;4971310;28;20046;-59
2022/01/06 12:02:20;;;;;;;10.10;4.38;;;0.80;99.90;;;;;;4973443;28;20133;-57
2022/01/06 12:04:55;;;;;;;13.57;4.22;;;0.80;99.90;;;;;;4972414;28;20141;-56
2022/01/06 12:07:22;;;;;;;13.07;4.03;;;0.80;99.90;;;;;;4973020;28;20519;-56
2022/01/06 12:10:15;;;;;;;;;;;0.80;99.90;;;;;;4972725;28;20112;-61
2022/01/06 12:12:42;;;;;;;6.28;3.17;;;0.80;99.90;;;;;;4968462;28;19979;-59
2022/01/06 12:15:12;;;;;;;9.27;3.70;;;0.80;99.90;;;;;;4972867;28;20042;-57
2022/01/06 12:17:52;;;;;;;13.57;4.65;;;0.80;99.90;;;;;;4975530;28;20050;-63
2022/01/06 12:20:24;;;;;;;9.77;3.53;;;0.80;99.90;;;;;;4970678;28;20093;-62
2022/01/06 12:22:51;;;;;;;19.85;3.85;;;0.80;99.90;;;;;;4972934;28;20038;-62
2022/01/06 12:25:23;;;;;;;12.25;3.10;;;0.80;99.90;;;;;;4973119;28;20597;-63
2022/01/06 12:27:59;;;;;;;7.55;3.85;;;0.80;99.90;;;;;;4972758;28;20046;-63
2022/01/06 12:30:34;;;;;;;13.55;3.22;;;0.80;99.90;;;;;;4972357;28;20050;-62
2022/01/06 12:33:05;;;;;;;10.93;3.63;;;0.90;99.90;;;;;;4987308;28;20057;-63
2022/01/06 12:35:53;;;;;;;9.13;3.70;;;0.90;99.90;;;;;;4970090;28;20046;-63
2022/01/06 12:38:32;;;;;;;8.65;5.20;;;0.90;99.90;;;;;;4971662;28;20057;-63
2022/01/06 12:40:59;;;;;;;8.68;3.70;;;0.90;99.90;;;;;;4970993;28;20524;-63
2022/01/06 12:43:39;;;;;;;10.43;4.13;;;0.90;99.90;;;;;;4969900;28;20508;-63
2022/01/06 12:46:18;;;;;;;8.15;3.63;;;1.00;99.90;;;;;;4973045;28;20058;-63
2022/01/06 12:48:51;;;;;;;11.63;3.72;;;1.00;99.90;;;;;;4987738;28;20332;-63
2022/01/06 12:51:29;;;;;;;11.00;3.80;;;1.00;99.90;;;;;;4970891;28;20040;-59
2022/01/06 12:54:09;;;;;;;14.75;4.60;;;1.10;99.90;;;;;;4973754;28;20413;-58
2022/01/06 12:56:38;;;;;;;13.57;3.78;;;1.00;99.90;;;;;;4970584;28;20520;-59
2022/01/06 12:59:21;;;;;;;10.38;4.75;;;1.00;99.90;;;;;;4970848;28;20056;-58
2022/01/06 13:01:52;;;;;;;8.77;4.03;;;1.00;99.90;;;;;;4972562;28;20417;-58
2022/01/06 13:04:25;;;;;;;9.82;3.22;;;1.00;99.90;;;;;;4976420;28;20038;-59
2022/01/06 13:06:58;;;;;;;5.78;2.95;;;1.00;99.90;;;;;;4974084;28;20085;-62
2022/01/06 13:09:30;;;;;;;13.45;3.90;;;1.10;99.90;;;;;;4976108;28;20042;-58
2022/01/06 13:12:03;;;;;;;11.77;4.03;;;1.10;99.90;;;;;;4974116;28;20042;-58
2022/01/06 13:14:36;;;;;;;13.65;3.63;;;1.10;99.90;;;;;;4976414;28;20078;-59
2022/01/06 13:17:11;;;;;;;12.88;3.67;;;1.10;99.90;;;;;;4978361;28;20050;-62
2022/01/06 13:19:50;;;;;;;12.32;3.83;;;1.10;99.90;;;;;;4975542;28;20046;-63
2022/01/06 13:22:36;;;;;;;6.50;3.00;;;1.10;99.90;;;;;;4974511;28;20034;-60
2022/01/06 13:25:10;;;;;;;5.45;3.25;;;1.10;99.90;;;;;;4976311;28;20501;-60